sensor_id;sensor_type;location;lat;lon;timestamp;pressure;altitude;pressure_sealevel;temperature
69785;BMP280;14177;51.520;6.764;2022-08-19T00:02:03;101036.31;;;21.36
69785;BMP280;14177;51.520;6.764;2022-08-19T00:04:34;101027.34;;;21.26
69785;BMP280;14177;51.520;6.764;2022-08-19T00:07:05;101032.19;;;21.19
69785;BMP280;14177;51.520;6.764;2022-08-19T00:09:33;101030.97;;;21.12
69785;BMP280;14177;51.520;6.764;2022-08-19T00:12:00;101039.09;;;21.09
69785;BMP280;14177;51.520;6.764;2022-08-19T00:14:29;101035.72;;;21.07
69785;BMP280;14177;51.520;6.764;2022-08-19T00:16:58;101041.94;;;21.06
69785;BMP280;14177;51.520;6.764;2022-08-19T00:19:25;101042.38;;;21.00
69785;BMP280;14177;51.520;6.764;2022-08-19T00:21:53;101043.63;;;20.95
69785;BMP280;14177;51.520;6.764;2022-08-19T00:24:20;101047.34;;;20.92
69785;BMP280;14177;51.520;6.764;2022-08-19T00:26:47;101040.25;;;20.93
69785;BMP280;14177;51.520;6.764;2022-08-19T00:29:17;101052.63;;;20.92
69785;BMP280;14177;51.520;6.764;2022-08-19T00:31:46;101049.25;;;20.90
69785;BMP280;14177;51.520;6.764;2022-08-19T00:34:14;101048.50;;;20.88
69785;BMP280;14177;51.520;6.764;2022-08-19T00:36:42;101041.53;;;20.88
69785;BMP280;14177;51.520;6.764;2022-08-19T00:39:10;101038.16;;;20.86
69785;BMP280;14177;51.520;6.764;2022-08-19T00:41:38;101035.72;;;20.83
69785;BMP280;14177;51.520;6.764;2022-08-19T00:44:10;101035.91;;;20.80
69785;BMP280;14177;51.520;6.764;2022-08-19T00:46:40;101031.78;;;20.76
69785;BMP280;14177;51.520;6.764;2022-08-19T00:49:28;101022.16;;;20.75
69785;BMP280;14177;51.520;6.764;2022-08-19T00:52:14;101025.03;;;20.72
69785;BMP280;14177;51.520;6.764;2022-08-19T00:54:43;101033.06;;;20.70
69785;BMP280;14177;51.520;6.764;2022-08-19T00:57:18;101034.94;;;20.68
69785;BMP280;14177;51.520;6.764;2022-08-19T00:59:54;101037.06;;;20.63
69785;BMP280;14177;51.520;6.764;2022-08-19T01:02:30;101031.13;;;20.60
69785;BMP280;14177;51.520;6.764;2022-08-19T01:04:59;101032.19;;;20.57
69785;BMP280;14177;51.520;6.764;2022-08-19T01:07:27;101029.84;;;20.53
69785;BMP280;14177;51.520;6.764;2022-08-19T01:10:03;101035.34;;;20.50
69785;BMP280;14177;51.520;6.764;2022-08-19T01:12:30;101024.97;;;20.47
69785;BMP280;14177;51.520;6.764;2022-08-19T01:14:58;101027.00;;;20.43
69785;BMP280;14177;51.520;6.764;2022-08-19T01:17:27;101023.75;;;20.40
69785;BMP280;14177;51.520;6.764;2022-08-19T01:19:54;101028.28;;;20.38
69785;BMP280;14177;51.520;6.764;2022-08-19T01:24:58;101031.19;;;20.33
69785;BMP280;14177;51.520;6.764;2022-08-19T01:27:26;101033.00;;;20.33
69785;BMP280;14177;51.520;6.764;2022-08-19T01:30:07;101041.22;;;20.28
69785;BMP280;14177;51.520;6.764;2022-08-19T01:32:34;101033.63;;;20.24
69785;BMP280;14177;51.520;6.764;2022-08-19T01:35:03;101035.72;;;20.19
69785;BMP280;14177;51.520;6.764;2022-08-19T01:37:54;101041.28;;;20.14
69785;BMP280;14177;51.520;6.764;2022-08-19T01:40:25;101034.31;;;20.13
69785;BMP280;14177;51.520;6.764;2022-08-19T01:42:53;101032.53;;;20.14
69785;BMP280;14177;51.520;6.764;2022-08-19T01:45:24;101030.84;;;20.13
69785;BMP280;14177;51.520;6.764;2022-08-19T01:47:52;101034.63;;;20.09
69785;BMP280;14177;51.520;6.764;2022-08-19T01:50:30;101029.63;;;20.04
69785;BMP280;14177;51.520;6.764;2022-08-19T01:52:58;101035.97;;;20.02
69785;BMP280;14177;51.520;6.764;2022-08-19T01:55:34;101035.22;;;20.00
69785;BMP280;14177;51.520;6.764;2022-08-19T01:58:17;101031.94;;;19.96
69785;BMP280;14177;51.520;6.764;2022-08-19T02:00:46;101044.38;;;19.94
69785;BMP280;14177;51.520;6.764;2022-08-19T02:03:14;101042.94;;;19.89
69785;BMP280;14177;51.520;6.764;2022-08-19T02:05:42;101040.63;;;19.84
69785;BMP280;14177;51.520;6.764;2022-08-19T02:08:10;101039.13;;;19.80
69785;BMP280;14177;51.520;6.764;2022-08-19T02:10:43;101042.16;;;19.74
69785;BMP280;14177;51.520;6.764;2022-08-19T02:13:12;101037.09;;;19.71
69785;BMP280;14177;51.520;6.764;2022-08-19T02:15:40;101033.78;;;19.68
69785;BMP280;14177;51.520;6.764;2022-08-19T02:18:07;101030.44;;;19.66
69785;BMP280;14177;51.520;6.764;2022-08-19T02:20:37;101028.75;;;19.65
69785;BMP280;14177;51.520;6.764;2022-08-19T02:23:06;101030.50;;;19.64
69785;BMP280;14177;51.520;6.764;2022-08-19T02:25:46;101027.44;;;19.58
69785;BMP280;14177;51.520;6.764;2022-08-19T02:28:14;101035.63;;;19.54
69785;BMP280;14177;51.520;6.764;2022-08-19T02:30:47;101044.38;;;19.54
69785;BMP280;14177;51.520;6.764;2022-08-19T02:33:15;101043.72;;;19.51
69785;BMP280;14177;51.520;6.764;2022-08-19T02:35:45;101052.69;;;19.48
69785;BMP280;14177;51.520;6.764;2022-08-19T02:38:13;101056.06;;;19.50
69785;BMP280;14177;51.520;6.764;2022-08-19T02:41:00;101050.88;;;19.49
69785;BMP280;14177;51.520;6.764;2022-08-19T02:43:30;101054.44;;;19.48
69785;BMP280;14177;51.520;6.764;2022-08-19T02:46:00;101056.25;;;19.47
69785;BMP280;14177;51.520;6.764;2022-08-19T02:48:28;101057.94;;;19.48
69785;BMP280;14177;51.520;6.764;2022-08-19T02:50:55;101050.97;;;19.47
69785;BMP280;14177;51.520;6.764;2022-08-19T02:53:26;101051.06;;;19.46
69785;BMP280;14177;51.520;6.764;2022-08-19T02:55:54;101046.75;;;19.45
69785;BMP280;14177;51.520;6.764;2022-08-19T02:58:22;101050.31;;;19.44
69785;BMP280;14177;51.520;6.764;2022-08-19T03:00:56;101046.09;;;19.41
69785;BMP280;14177;51.520;6.764;2022-08-19T03:03:23;101047.03;;;19.40
69785;BMP280;14177;51.520;6.764;2022-08-19T03:05:50;101053.44;;;19.36
69785;BMP280;14177;51.520;6.764;2022-08-19T03:08:24;101052.69;;;19.34
69785;BMP280;14177;51.520;6.764;2022-08-19T03:10:52;101051.94;;;19.32
69785;BMP280;14177;51.520;6.764;2022-08-19T03:13:20;101051.19;;;19.30
69785;BMP280;14177;51.520;6.764;2022-08-19T03:15:48;101055.69;;;19.28
69785;BMP280;14177;51.520;6.764;2022-08-19T03:18:16;101047.81;;;19.28
69785;BMP280;14177;51.520;6.764;2022-08-19T03:20:46;101052.50;;;19.23
69785;BMP280;14177;51.520;6.764;2022-08-19T03:23:15;101047.44;;;19.20
69785;BMP280;14177;51.520;6.764;2022-08-19T03:25:46;101046.59;;;19.20
69785;BMP280;14177;51.520;6.764;2022-08-19T03:28:34;101047.63;;;19.17
69785;BMP280;14177;51.520;6.764;2022-08-19T03:31:05;101039.91;;;19.14
69785;BMP280;14177;51.520;6.764;2022-08-19T03:33:53;101038.38;;;19.10
69785;BMP280;14177;51.520;6.764;2022-08-19T03:36:26;101044.56;;;19.09
69785;BMP280;14177;51.520;6.764;2022-08-19T03:38:59;101046.47;;;19.07
69785;BMP280;14177;51.520;6.764;2022-08-19T03:41:35;101043.75;;;19.09
69785;BMP280;14177;51.520;6.764;2022-08-19T03:44:13;101043.75;;;19.09
69785;BMP280;14177;51.520;6.764;2022-08-19T03:46:46;101047.03;;;19.12
69785;BMP280;14177;51.520;6.764;2022-08-19T03:49:15;101051.53;;;19.10
69785;BMP280;14177;51.520;6.764;2022-08-19T03:51:46;101045.44;;;19.10
69785;BMP280;14177;51.520;6.764;2022-08-19T03:54:15;101051.53;;;19.10
69785;BMP280;14177;51.520;6.764;2022-08-19T03:56:45;101055.09;;;19.09
69785;BMP280;14177;51.520;6.764;2022-08-19T03:59:22;101046.47;;;19.07
69785;BMP280;14177;51.520;6.764;2022-08-19T04:01:55;101049.19;;;19.06
69785;BMP280;14177;51.520;6.764;2022-08-19T04:04:24;101042.31;;;19.03
69785;BMP280;14177;51.520;6.764;2022-08-19T04:06:55;101047.59;;;19.03
69785;BMP280;14177;51.520;6.764;2022-08-19T04:09:23;101046.00;;;19.01
69785;BMP280;14177;51.520;6.764;2022-08-19T04:11:53;101048.72;;;18.99
69785;BMP280;14177;51.520;6.764;2022-08-19T04:14:29;101047.00;;;18.98
69785;BMP280;14177;51.520;6.764;2022-08-19T04:17:02;101048.81;;;18.98
69785;BMP280;14177;51.520;6.764;2022-08-19T04:19:33;101048.06;;;18.96
69785;BMP280;14177;51.520;6.764;2022-08-19T04:22:02;101054.38;;;18.93
69785;BMP280;14177;51.520;6.764;2022-08-19T04:24:29;101045.63;;;18.93
69785;BMP280;14177;51.520;6.764;2022-08-19T04:26:56;101045.72;;;18.91
69785;BMP280;14177;51.520;6.764;2022-08-19T04:29:26;101049.19;;;18.92
69785;BMP280;14177;51.520;6.764;2022-08-19T04:31:55;101048.34;;;18.91
69785;BMP280;14177;51.520;6.764;2022-08-19T04:34:26;101051.00;;;18.91
69785;BMP280;14177;51.520;6.764;2022-08-19T04:36:57;101041.28;;;18.92
69785;BMP280;14177;51.520;6.764;2022-08-19T04:39:29;101047.41;;;18.92
69785;BMP280;14177;51.520;6.764;2022-08-19T04:42:17;101038.78;;;18.90
69785;BMP280;14177;51.520;6.764;2022-08-19T04:45:09;101044.88;;;18.91
69785;BMP280;14177;51.520;6.764;2022-08-19T04:47:39;101049.94;;;18.94
69785;BMP280;14177;51.520;6.764;2022-08-19T04:50:25;101059.44;;;18.96
69785;BMP280;14177;51.520;6.764;2022-08-19T04:52:52;101067.31;;;18.96
69785;BMP280;14177;51.520;6.764;2022-08-19T04:55:20;101066.38;;;18.97
69785;BMP280;14177;51.520;6.764;2022-08-19T04:57:47;101061.88;;;18.99
69785;BMP280;14177;51.520;6.764;2022-08-19T05:00:14;101065.06;;;19.04
69785;BMP280;14177;51.520;6.764;2022-08-19T05:02:41;101076.16;;;19.09
69785;BMP280;14177;51.520;6.764;2022-08-19T05:05:09;101070.91;;;19.09
69785;BMP280;14177;51.520;6.764;2022-08-19T05:07:36;101074.41;;;19.10
69785;BMP280;14177;51.520;6.764;2022-08-19T05:10:05;101088.22;;;19.13
69785;BMP280;14177;51.520;6.764;2022-08-19T05:12:33;101089.75;;;19.17
69785;BMP280;14177;51.520;6.764;2022-08-19T05:15:02;101101.78;;;19.21
69785;BMP280;14177;51.520;6.764;2022-08-19T05:17:29;101102.28;;;19.28
69785;BMP280;14177;51.520;6.764;2022-08-19T05:20:05;101101.22;;;19.30
69785;BMP280;14177;51.520;6.764;2022-08-19T05:22:51;101097.47;;;19.34
69785;BMP280;14177;51.520;6.764;2022-08-19T05:25:21;101110.53;;;19.36
69785;BMP280;14177;51.520;6.764;2022-08-19T05:27:48;101107.81;;;19.37
69785;BMP280;14177;51.520;6.764;2022-08-19T05:30:16;101110.25;;;19.40
69785;BMP280;14177;51.520;6.764;2022-08-19T05:32:44;101116.09;;;19.45
69785;BMP280;14177;51.520;6.764;2022-08-19T05:35:11;101104.44;;;19.49
69785;BMP280;14177;51.520;6.764;2022-08-19T05:37:39;101111.19;;;19.53
69785;BMP280;14177;51.520;6.764;2022-08-19T05:40:10;101110.81;;;19.59
69785;BMP280;14177;51.520;6.764;2022-08-19T05:42:37;101107.81;;;19.65
69785;BMP280;14177;51.520;6.764;2022-08-19T05:45:05;101110.78;;;19.73
69785;BMP280;14177;51.520;6.764;2022-08-19T05:47:33;101109.38;;;19.81
69785;BMP280;14177;51.520;6.764;2022-08-19T05:50:00;101098.31;;;19.89
69785;BMP280;14177;51.520;6.764;2022-08-19T05:52:31;101109.13;;;19.98
69785;BMP280;14177;51.520;6.764;2022-08-19T05:54:59;101106.84;;;20.06
69785;BMP280;14177;51.520;6.764;2022-08-19T05:57:27;101113.53;;;20.12
69785;BMP280;14177;51.520;6.764;2022-08-19T05:59:55;101107.88;;;20.18
69785;BMP280;14177;51.520;6.764;2022-08-19T06:02:26;101107.47;;;20.24
69785;BMP280;14177;51.520;6.764;2022-08-19T06:04:53;101112.97;;;20.33
69785;BMP280;14177;51.520;6.764;2022-08-19T06:07:21;101110.56;;;20.43
69785;BMP280;14177;51.520;6.764;2022-08-19T06:09:48;101106.69;;;20.48
69785;BMP280;14177;51.520;6.764;2022-08-19T06:12:32;101105.97;;;20.59
69785;BMP280;14177;51.520;6.764;2022-08-19T06:15:12;101109.91;;;20.66
69785;BMP280;14177;51.520;6.764;2022-08-19T06:17:41;101105.69;;;20.76
69785;BMP280;14177;51.520;6.764;2022-08-19T06:20:14;101105.84;;;20.87
69785;BMP280;14177;51.520;6.764;2022-08-19T06:22:46;101096.56;;;20.93
69785;BMP280;14177;51.520;6.764;2022-08-19T06:25:14;101092.34;;;21.03
69785;BMP280;14177;51.520;6.764;2022-08-19T06:27:42;101098.78;;;21.12
69785;BMP280;14177;51.520;6.764;2022-08-19T06:30:29;101103.41;;;21.21
69785;BMP280;14177;51.520;6.764;2022-08-19T06:32:56;101098.53;;;21.27
69785;BMP280;14177;51.520;6.764;2022-08-19T06:35:23;101097.28;;;21.33
69785;BMP280;14177;51.520;6.764;2022-08-19T06:37:50;101099.38;;;21.40
69785;BMP280;14177;51.520;6.764;2022-08-19T06:40:17;101097.25;;;21.45
69785;BMP280;14177;51.520;6.764;2022-08-19T06:42:44;101095.75;;;21.54
69785;BMP280;14177;51.520;6.764;2022-08-19T06:45:22;101088.34;;;21.59
69785;BMP280;14177;51.520;6.764;2022-08-19T06:47:51;101091.44;;;21.65
69785;BMP280;14177;51.520;6.764;2022-08-19T06:50:25;101099.91;;;21.70
69785;BMP280;14177;51.520;6.764;2022-08-19T06:52:52;101101.59;;;21.71
69785;BMP280;14177;51.520;6.764;2022-08-19T06:55:21;101103.78;;;21.77
69785;BMP280;14177;51.520;6.764;2022-08-19T06:57:48;101103.22;;;21.85
69785;BMP280;14177;51.520;6.764;2022-08-19T07:00:17;101105.75;;;21.86
69785;BMP280;14177;51.520;6.764;2022-08-19T07:02:44;101110.06;;;21.87
69785;BMP280;14177;51.520;6.764;2022-08-19T07:05:22;101112.97;;;21.84
69785;BMP280;14177;51.520;6.764;2022-08-19T07:07:49;101107.78;;;21.83
69785;BMP280;14177;51.520;6.764;2022-08-19T07:10:17;101112.47;;;21.79
69785;BMP280;14177;51.520;6.764;2022-08-19T07:12:45;101112.47;;;21.79
69785;BMP280;14177;51.520;6.764;2022-08-19T07:15:12;101123.66;;;21.83
69785;BMP280;14177;51.520;6.764;2022-08-19T07:17:39;101123.59;;;21.95
69785;BMP280;14177;51.520;6.764;2022-08-19T07:20:09;101118.50;;;22.05
69785;BMP280;14177;51.520;6.764;2022-08-19T07:22:38;101119.53;;;22.14
69785;BMP280;14177;51.520;6.764;2022-08-19T07:25:09;101122.84;;;22.29
69785;BMP280;14177;51.520;6.764;2022-08-19T07:27:36;101115.22;;;22.37
69785;BMP280;14177;51.520;6.764;2022-08-19T07:30:08;101116.94;;;22.49
69785;BMP280;14177;51.520;6.764;2022-08-19T07:32:39;101122.25;;;22.60
69785;BMP280;14177;51.520;6.764;2022-08-19T07:35:06;101126.41;;;22.75
69785;BMP280;14177;51.520;6.764;2022-08-19T07:37:34;101123.56;;;22.89
69785;BMP280;14177;51.520;6.764;2022-08-19T07:40:05;101117.06;;;22.93
69785;BMP280;14177;51.520;6.764;2022-08-19T07:42:32;101126.72;;;23.05
69785;BMP280;14177;51.520;6.764;2022-08-19T07:44:59;101133.53;;;23.20
69785;BMP280;14177;51.520;6.764;2022-08-19T07:47:26;101138.13;;;23.39
69785;BMP280;14177;51.520;6.764;2022-08-19T07:50:17;101138.59;;;23.66
69785;BMP280;14177;51.520;6.764;2022-08-19T07:52:47;101138.13;;;23.94
69785;BMP280;14177;51.520;6.764;2022-08-19T07:55:22;101141.19;;;24.21
69785;BMP280;14177;51.520;6.764;2022-08-19T07:58:13;101142.59;;;24.36
69785;BMP280;14177;51.520;6.764;2022-08-19T08:00:43;101151.13;;;24.51
69785;BMP280;14177;51.520;6.764;2022-08-19T08:03:11;101145.97;;;24.49
69785;BMP280;14177;51.520;6.764;2022-08-19T08:05:38;101157.78;;;24.45
69785;BMP280;14177;51.520;6.764;2022-08-19T08:08:24;101151.56;;;24.24
69785;BMP280;14177;51.520;6.764;2022-08-19T08:11:18;101160.97;;;24.17
69785;BMP280;14177;51.520;6.764;2022-08-19T08:13:48;101160.97;;;24.17
69785;BMP280;14177;51.520;6.764;2022-08-19T08:16:34;101169.78;;;24.29
69785;BMP280;14177;51.520;6.764;2022-08-19T08:19:13;101159.97;;;24.40
69785;BMP280;14177;51.520;6.764;2022-08-19T08:21:56;101162.59;;;24.51
69785;BMP280;14177;51.520;6.764;2022-08-19T08:24:28;101164.13;;;24.65
69785;BMP280;14177;51.520;6.764;2022-08-19T08:27:00;101167.75;;;24.84
69785;BMP280;14177;51.520;6.764;2022-08-19T08:29:29;101166.16;;;25.13
69785;BMP280;14177;51.520;6.764;2022-08-19T08:32:01;101170.13;;;25.39
69785;BMP280;14177;51.520;6.764;2022-08-19T08:34:28;101168.72;;;25.35
69785;BMP280;14177;51.520;6.764;2022-08-19T08:36:55;101169.50;;;25.26
69785;BMP280;14177;51.520;6.764;2022-08-19T08:39:22;101177.75;;;25.12
69785;BMP280;14177;51.520;6.764;2022-08-19T08:41:55;101174.34;;;25.00
69785;BMP280;14177;51.520;6.764;2022-08-19T08:44:40;101179.31;;;24.94
69785;BMP280;14177;51.520;6.764;2022-08-19T08:47:16;101177.88;;;24.90
69785;BMP280;14177;51.520;6.764;2022-08-19T08:50:07;101175.16;;;25.01
69785;BMP280;14177;51.520;6.764;2022-08-19T08:52:47;101165.00;;;25.26
69785;BMP280;14177;51.520;6.764;2022-08-19T08:55:22;101165.63;;;25.39
69785;BMP280;14177;51.520;6.764;2022-08-19T08:57:59;101165.84;;;25.57
69785;BMP280;14177;51.520;6.764;2022-08-19T09:00:33;101158.56;;;25.79
69785;BMP280;14177;51.520;6.764;2022-08-19T09:03:15;101167.00;;;25.84
69785;BMP280;14177;51.520;6.764;2022-08-19T09:06:00;101162.31;;;25.77
69785;BMP280;14177;51.520;6.764;2022-08-19T09:14:36;101157.69;;;26.08
69785;BMP280;14177;51.520;6.764;2022-08-19T09:17:24;101153.66;;;26.33
69785;BMP280;14177;51.520;6.764;2022-08-19T09:19:58;101149.06;;;26.63
69785;BMP280;14177;51.520;6.764;2022-08-19T09:22:31;101142.16;;;26.99
69785;BMP280;14177;51.520;6.764;2022-08-19T09:24:59;101143.81;;;27.28
69785;BMP280;14177;51.520;6.764;2022-08-19T09:27:27;101147.41;;;27.46
69785;BMP280;14177;51.520;6.764;2022-08-19T09:30:17;101149.13;;;27.74
69785;BMP280;14177;51.520;6.764;2022-08-19T09:32:45;101152.59;;;27.84
69785;BMP280;14177;51.520;6.764;2022-08-19T09:35:13;101150.03;;;27.92
69785;BMP280;14177;51.520;6.764;2022-08-19T09:37:42;101158.13;;;28.00
69785;BMP280;14177;51.520;6.764;2022-08-19T09:40:11;101144.19;;;28.06
69785;BMP280;14177;51.520;6.764;2022-08-19T09:42:39;101147.94;;;28.13
69785;BMP280;14177;51.520;6.764;2022-08-19T09:45:21;101145.78;;;28.16
69785;BMP280;14177;51.520;6.764;2022-08-19T09:47:51;101143.00;;;28.18
69785;BMP280;14177;51.520;6.764;2022-08-19T09:50:22;101140.31;;;28.18
69785;BMP280;14177;51.520;6.764;2022-08-19T09:52:50;101138.03;;;28.23
69785;BMP280;14177;51.520;6.764;2022-08-19T09:55:26;101141.34;;;28.34
69785;BMP280;14177;51.520;6.764;2022-08-19T09:58:01;101134.56;;;28.40
69785;BMP280;14177;51.520;6.764;2022-08-19T10:00:29;101142.13;;;28.27
69785;BMP280;14177;51.520;6.764;2022-08-19T10:02:57;101144.56;;;28.11
69785;BMP280;14177;51.520;6.764;2022-08-19T10:05:24;101140.81;;;28.31
69785;BMP280;14177;51.520;6.764;2022-08-19T10:08:10;101145.16;;;28.66
69785;BMP280;14177;51.520;6.764;2022-08-19T10:10:41;101139.13;;;28.64
69785;BMP280;14177;51.520;6.764;2022-08-19T10:13:16;101148.22;;;28.54
69785;BMP280;14177;51.520;6.764;2022-08-19T10:15:44;101133.41;;;28.59
69785;BMP280;14177;51.520;6.764;2022-08-19T10:18:16;101129.06;;;28.93
69785;BMP280;14177;51.520;6.764;2022-08-19T10:20:48;101143.09;;;28.95
69785;BMP280;14177;51.520;6.764;2022-08-19T10:23:20;101146.41;;;28.72
69785;BMP280;14177;51.520;6.764;2022-08-19T10:25:48;101142.66;;;28.48
69785;BMP280;14177;51.520;6.764;2022-08-19T10:28:16;101132.53;;;28.24
69785;BMP280;14177;51.520;6.764;2022-08-19T10:30:46;101134.78;;;28.02
69785;BMP280;14177;51.520;6.764;2022-08-19T10:33:13;101130.16;;;28.04
69785;BMP280;14177;51.520;6.764;2022-08-19T10:36:06;101128.56;;;28.11
69785;BMP280;14177;51.520;6.764;2022-08-19T10:38:34;101125.97;;;28.01
69785;BMP280;14177;51.520;6.764;2022-08-19T10:41:13;101126.69;;;27.94
69785;BMP280;14177;51.520;6.764;2022-08-19T10:43:41;101132.09;;;27.84
69785;BMP280;14177;51.520;6.764;2022-08-19T10:46:13;101117.72;;;28.12
69785;BMP280;14177;51.520;6.764;2022-08-19T10:48:43;101115.91;;;28.48
69785;BMP280;14177;51.520;6.764;2022-08-19T10:51:11;101119.88;;;28.78
69785;BMP280;14177;51.520;6.764;2022-08-19T10:53:57;101120.78;;;29.04
69785;BMP280;14177;51.520;6.764;2022-08-19T10:56:26;101113.31;;;28.90
69785;BMP280;14177;51.520;6.764;2022-08-19T10:59:17;101120.34;;;28.56
69785;BMP280;14177;51.520;6.764;2022-08-19T11:01:45;101119.69;;;28.37
69785;BMP280;14177;51.520;6.764;2022-08-19T11:04:13;101110.09;;;28.69
69785;BMP280;14177;51.520;6.764;2022-08-19T11:06:42;101124.06;;;28.81
69785;BMP280;14177;51.520;6.764;2022-08-19T11:09:21;101106.50;;;28.96
69785;BMP280;14177;51.520;6.764;2022-08-19T11:12:08;101103.03;;;29.29
69785;BMP280;14177;51.520;6.764;2022-08-19T11:14:37;101103.81;;;29.80
69785;BMP280;14177;51.520;6.764;2022-08-19T11:17:05;101095.56;;;30.31
69785;BMP280;14177;51.520;6.764;2022-08-19T11:19:35;101097.63;;;30.69
69785;BMP280;14177;51.520;6.764;2022-08-19T11:22:03;101114.34;;;30.47
69785;BMP280;14177;51.520;6.764;2022-08-19T11:24:31;101108.50;;;29.86
69785;BMP280;14177;51.520;6.764;2022-08-19T11:27:09;101107.56;;;29.36
69785;BMP280;14177;51.520;6.764;2022-08-19T11:29:38;101112.00;;;29.45
69785;BMP280;14177;51.520;6.764;2022-08-19T11:32:10;101109.84;;;29.82
69785;BMP280;14177;51.520;6.764;2022-08-19T11:34:38;101102.00;;;29.96
69785;BMP280;14177;51.520;6.764;2022-08-19T11:37:06;101106.31;;;29.82
69785;BMP280;14177;51.520;6.764;2022-08-19T11:39:34;101098.09;;;29.42
69785;BMP280;14177;51.520;6.764;2022-08-19T11:42:17;101101.63;;;29.42
69785;BMP280;14177;51.520;6.764;2022-08-19T11:45:18;101100.00;;;29.49
69785;BMP280;14177;51.520;6.764;2022-08-19T11:48:11;101098.88;;;30.09
69785;BMP280;14177;51.520;6.764;2022-08-19T11:50:39;101095.59;;;30.71
69785;BMP280;14177;51.520;6.764;2022-08-19T11:53:12;101084.84;;;31.03
69785;BMP280;14177;51.520;6.764;2022-08-19T11:55:39;101075.03;;;31.41
69785;BMP280;14177;51.520;6.764;2022-08-19T11:58:26;101079.56;;;31.87
69785;BMP280;14177;51.520;6.764;2022-08-19T12:00:53;101082.16;;;32.03
69785;BMP280;14177;51.520;6.764;2022-08-19T12:03:22;101094.47;;;32.12
69785;BMP280;14177;51.520;6.764;2022-08-19T12:05:51;101081.03;;;32.42
69785;BMP280;14177;51.520;6.764;2022-08-19T12:08:19;101069.28;;;32.66
69785;BMP280;14177;51.520;6.764;2022-08-19T12:10:46;101075.72;;;32.57
69785;BMP280;14177;51.520;6.764;2022-08-19T12:13:15;101083.28;;;32.53
69785;BMP280;14177;51.520;6.764;2022-08-19T12:15:47;101091.44;;;32.23
69785;BMP280;14177;51.520;6.764;2022-08-19T12:18:16;101071.66;;;32.08
69785;BMP280;14177;51.520;6.764;2022-08-19T12:20:43;101070.31;;;32.12
69785;BMP280;14177;51.520;6.764;2022-08-19T12:23:40;101074.44;;;32.31
69785;BMP280;14177;51.520;6.764;2022-08-19T12:27:14;101069.38;;;32.87
69785;BMP280;14177;51.520;6.764;2022-08-19T12:30:28;101063.19;;;33.01
69785;BMP280;14177;51.520;6.764;2022-08-19T12:33:10;101065.63;;;33.10
69785;BMP280;14177;51.520;6.764;2022-08-19T12:35:44;101067.13;;;33.27
69785;BMP280;14177;51.520;6.764;2022-08-19T12:38:22;101051.47;;;33.31
69785;BMP280;14177;51.520;6.764;2022-08-19T12:40:50;101062.13;;;33.39
69785;BMP280;14177;51.520;6.764;2022-08-19T12:43:22;101063.31;;;33.36
69785;BMP280;14177;51.520;6.764;2022-08-19T12:45:50;101063.16;;;33.38
69785;BMP280;14177;51.520;6.764;2022-08-19T12:48:17;101065.25;;;33.57
69785;BMP280;14177;51.520;6.764;2022-08-19T12:51:00;101061.16;;;33.61
69785;BMP280;14177;51.520;6.764;2022-08-19T12:53:28;101056.34;;;33.56
69785;BMP280;14177;51.520;6.764;2022-08-19T12:55:57;101057.97;;;33.22
69785;BMP280;14177;51.520;6.764;2022-08-19T12:58:25;101055.31;;;33.14
69785;BMP280;14177;51.520;6.764;2022-08-19T13:00:56;101058.78;;;33.22
69785;BMP280;14177;51.520;6.764;2022-08-19T13:03:23;101055.25;;;33.51
69785;BMP280;14177;51.520;6.764;2022-08-19T13:05:55;101044.91;;;33.69
69785;BMP280;14177;51.520;6.764;2022-08-19T13:08:25;101051.88;;;33.78
69785;BMP280;14177;51.520;6.764;2022-08-19T13:10:52;101039.44;;;33.62
69785;BMP280;14177;51.520;6.764;2022-08-19T13:13:20;101044.03;;;33.33
69785;BMP280;14177;51.520;6.764;2022-08-19T13:15:47;101043.81;;;33.34
69785;BMP280;14177;51.520;6.764;2022-08-19T13:18:14;101049.97;;;33.43
69785;BMP280;14177;51.520;6.764;2022-08-19T13:20:41;101047.78;;;33.53
69785;BMP280;14177;51.520;6.764;2022-08-19T13:23:18;101040.47;;;33.61
69785;BMP280;14177;51.520;6.764;2022-08-19T13:25:56;101045.59;;;33.42
69785;BMP280;14177;51.520;6.764;2022-08-19T13:28:24;101037.34;;;33.29
69785;BMP280;14177;51.520;6.764;2022-08-19T13:30:55;101043.56;;;33.15
69785;BMP280;14177;51.520;6.764;2022-08-19T13:33:40;101026.31;;;33.24
69785;BMP280;14177;51.520;6.764;2022-08-19T13:36:07;101029.66;;;33.26
69785;BMP280;14177;51.520;6.764;2022-08-19T13:38:39;101022.59;;;33.25
69785;BMP280;14177;51.520;6.764;2022-08-19T13:41:06;101019.78;;;33.04
69785;BMP280;14177;51.520;6.764;2022-08-19T13:43:40;101009.03;;;32.89
69785;BMP280;14177;51.520;6.764;2022-08-19T13:46:11;101024.06;;;32.98
69785;BMP280;14177;51.520;6.764;2022-08-19T13:48:42;101014.84;;;32.93
69785;BMP280;14177;51.520;6.764;2022-08-19T13:51:10;101010.44;;;33.14
69785;BMP280;14177;51.520;6.764;2022-08-19T13:53:39;101005.50;;;33.47
69785;BMP280;14177;51.520;6.764;2022-08-19T13:56:09;101007.44;;;33.38
69785;BMP280;14177;51.520;6.764;2022-08-19T13:58:38;101006.88;;;33.28
69785;BMP280;14177;51.520;6.764;2022-08-19T14:01:08;100999.19;;;33.11
69785;BMP280;14177;51.520;6.764;2022-08-19T14:03:36;101003.06;;;32.94
69785;BMP280;14177;51.520;6.764;2022-08-19T14:06:04;101000.09;;;32.89
69785;BMP280;14177;51.520;6.764;2022-08-19T14:08:31;101017.38;;;33.09
69785;BMP280;14177;51.520;6.764;2022-08-19T14:10:59;100997.81;;;33.00
69785;BMP280;14177;51.520;6.764;2022-08-19T14:13:32;100999.91;;;33.05
69785;BMP280;14177;51.520;6.764;2022-08-19T14:16:00;101009.03;;;32.75
69785;BMP280;14177;51.520;6.764;2022-08-19T14:18:27;100995.38;;;32.76
69785;BMP280;14177;51.520;6.764;2022-08-19T14:20:56;101008.53;;;32.86
69785;BMP280;14177;51.520;6.764;2022-08-19T14:23:29;101005.47;;;32.89
69785;BMP280;14177;51.520;6.764;2022-08-19T14:26:10;101003.53;;;32.83
69785;BMP280;14177;51.520;6.764;2022-08-19T14:28:41;101006.13;;;32.76
69785;BMP280;14177;51.520;6.764;2022-08-19T14:31:14;101010.94;;;32.66
69785;BMP280;14177;51.520;6.764;2022-08-19T14:33:47;101001.41;;;32.42